createdAt,value
2023-10-28T00:03:03.370Z,98542.78
2023-10-28T00:08:05.065Z,98540.78
2023-10-28T00:13:08.137Z,98547.22
2023-10-28T00:18:10.111Z,98546.75
2023-10-28T00:23:13.048Z,98543.56
2023-10-28T00:28:14.743Z,98550.84
2023-10-28T00:33:16.880Z,98541.94
2023-10-28T00:38:18.489Z,98557.97
2023-10-28T00:43:23.621Z,98548.06
2023-10-28T00:48:25.112Z,98556.47
2023-10-28T00:53:27.575Z,98545.13
2023-10-28T00:58:29.100Z,98550.28
2023-10-28T01:03:31.849Z,98545.69
2023-10-28T01:08:33.486Z,98543.13
2023-10-28T01:13:34.958Z,98545.47
2023-10-28T01:18:36.482Z,98539.84
2023-10-28T01:23:38.072Z,98549.47
2023-10-28T01:28:39.725Z,98552.16
2023-10-28T01:33:41.138Z,98542.19
2023-10-28T01:38:44.118Z,98539.84
2023-10-28T01:43:47.239Z,98540.09
2023-10-28T01:48:48.717Z,98535.50
2023-10-28T01:53:50.637Z,98536.13
2023-10-28T01:58:52.047Z,98545.63
2023-10-28T02:03:54.337Z,98541.16
2023-10-28T02:08:55.754Z,98541.63
2023-10-28T02:13:57.173Z,98536.94
2023-10-28T02:18:58.547Z,98538.25
2023-10-28T02:24:01.587Z,98542.44
2023-10-28T02:29:03.261Z,98542.91
2023-10-28T02:34:08.176Z,98543.63
2023-10-28T02:39:11.073Z,98544.66
2023-10-28T02:44:12.522Z,98556.03
2023-10-28T02:49:13.888Z,98558.16
2023-10-28T02:54:15.473Z,98571.63
2023-10-28T02:59:16.913Z,98570.34
2023-10-28T03:04:19.258Z,98578.06
2023-10-28T03:09:20.663Z,98582.41
2023-10-28T03:14:23.398Z,98599.75
2023-10-28T03:19:24.854Z,98594.97
2023-10-28T03:24:26.275Z,98600.94
2023-10-28T03:29:27.677Z,98596.03
2023-10-28T03:34:29.085Z,98607.84
2023-10-28T03:39:30.535Z,98614.31
2023-10-28T03:44:33.005Z,98623.19
2023-10-28T03:49:34.709Z,98628.56
2023-10-28T03:54:36.133Z,98632.19
2023-10-28T03:59:37.642Z,98630.91
2023-10-28T04:04:39.071Z,98640.41
2023-10-28T04:09:40.498Z,98653.66
2023-10-28T04:14:41.978Z,98646.84
2023-10-28T04:19:43.368Z,98659.50
2023-10-28T04:24:44.837Z,98659.03
2023-10-28T04:29:46.741Z,98658.13
2023-10-28T04:34:56.537Z,98676.66
2023-10-28T04:40:04.750Z,98668.69
2023-10-28T04:45:07.369Z,98663.69
2023-10-28T04:50:09.144Z,98665.56
2023-10-28T04:55:13.728Z,98670.13
2023-10-28T05:00:17.848Z,98669.66
2023-10-28T05:05:19.459Z,98680.81
2023-10-28T05:10:20.966Z,98655.84
2023-10-28T05:15:22.338Z,98666.41
2023-10-28T05:20:23.730Z,98660.78
2023-10-28T05:25:25.137Z,98662.75
2023-10-28T05:30:26.784Z,98661.09
2023-10-28T05:35:28.157Z,98653.00
2023-10-28T05:40:29.547Z,98655.13
2023-10-28T05:45:30.997Z,98664.28
2023-10-28T05:50:32.401Z,98667.34
2023-10-28T05:55:33.847Z,98668.38
2023-10-28T06:00:35.301Z,98674.09
2023-10-28T06:05:36.904Z,98675.38
2023-10-28T06:10:38.363Z,98676.19
2023-10-28T06:15:39.994Z,98676.66
2023-10-28T06:20:41.519Z,98694.69
2023-10-28T06:25:42.964Z,98694.69
2023-10-28T06:30:51.682Z,98695.22
2023-10-28T06:35:53.299Z,98708.56
2023-10-28T06:40:55.217Z,98706.03
2023-10-28T06:45:56.673Z,98705.31
2023-10-28T06:50:58.093Z,98726.56
2023-10-28T06:56:03.650Z,98719.25
2023-10-28T07:01:05.527Z,98723.59
2023-10-28T07:06:10.239Z,98735.56
2023-10-28T07:11:14.581Z,98742.16
2023-10-28T07:16:21.796Z,98752.47
2023-10-28T07:21:23.270Z,98757.03
2023-10-28T07:26:27.443Z,98766.19
2023-10-28T07:31:28.883Z,98769.75
2023-10-28T07:36:30.314Z,98771.84
2023-10-28T07:41:32.034Z,98777.97
2023-10-28T07:46:34.503Z,98776.69
2023-10-28T07:51:36.439Z,98773.63
2023-10-28T07:56:37.907Z,98764.41
2023-10-28T08:01:42.428Z,98785.88
2023-10-28T08:06:43.881Z,98787.75
2023-10-28T08:11:45.294Z,98791.03
2023-10-28T08:16:46.819Z,98793.75
2023-10-28T08:21:48.322Z,98811.72
2023-10-28T08:26:50.291Z,98804.78
2023-10-28T08:31:52.143Z,98815.47
2023-10-28T08:36:53.964Z,98812.22
2023-10-28T08:41:55.344Z,98811.41
2023-10-28T08:46:57.463Z,98819.72
2023-10-28T08:52:03.124Z,98823.84
2023-10-28T08:57:04.899Z,98824.22
2023-10-28T09:02:11.071Z,98828.03
2023-10-28T09:07:12.651Z,98829.22
2023-10-28T09:12:14.055Z,98841.06
2023-10-28T09:17:21.445Z,98847.06
2023-10-28T09:22:24.350Z,98835.31
2023-10-28T09:27:25.766Z,98845.66
2023-10-28T09:32:27.810Z,98838.97
2023-10-28T09:37:29.355Z,98848.00
2023-10-28T09:42:38.557Z,98842.25
2023-10-28T09:47:57.861Z,98830.84
2023-10-28T09:52:59.906Z,98837.06
2023-10-28T09:58:14.458Z,98851.38
2023-10-28T10:03:45.956Z,98842.09
2023-10-28T10:08:49.157Z,98841.00
2023-10-28T10:13:51.023Z,98827.16
2023-10-28T10:18:55.675Z,98833.88
2023-10-28T10:24:05.263Z,98839.28
2023-10-28T10:29:06.974Z,98845.53
2023-10-28T10:34:09.464Z,98842.59
2023-10-28T10:39:12.711Z,98837.16
2023-10-28T10:44:34.548Z,98837.97
2023-10-28T10:49:37.715Z,98838.75
2023-10-28T10:54:40.560Z,98833.03
2023-10-28T10:59:42.179Z,98828.53
2023-10-28T11:04:44.168Z,98826.91
2023-10-28T11:09:45.799Z,98822.63
2023-10-28T11:14:48.746Z,98827.34
2023-10-28T11:19:53.521Z,98818.47
2023-10-28T11:24:58.607Z,98828.47
2023-10-28T11:30:00.176Z,98819.03
2023-10-28T11:35:01.752Z,98821.06
2023-10-28T11:40:05.759Z,98813.28
2023-10-28T11:45:08.912Z,98819.72
2023-10-28T11:50:10.523Z,98818.78
2023-10-28T11:55:11.921Z,98812.00
2023-10-28T12:00:15.486Z,98817.66
2023-10-28T12:05:16.950Z,98819.13
2023-10-28T12:10:18.358Z,98816.50
2023-10-28T12:15:19.804Z,98811.22
2023-10-28T12:20:21.400Z,98815.19
2023-10-28T12:25:22.904Z,98808.19
2023-10-28T12:30:24.747Z,98808.47
2023-10-28T12:35:26.188Z,98807.38
2023-10-28T12:40:28.116Z,98810.63
2023-10-28T12:45:30.406Z,98813.16
2023-10-28T12:50:32.313Z,98812.69
2023-10-28T12:55:33.726Z,98816.16
2023-10-28T13:00:35.136Z,98826.41
2023-10-28T13:05:36.812Z,98828.63
2023-10-28T13:10:38.418Z,98833.47
2023-10-28T13:15:41.162Z,98842.69
2023-10-28T13:20:42.567Z,98845.97
2023-10-28T13:25:44.017Z,98863.78
2023-10-28T13:30:45.426Z,98864.41
2023-10-28T13:35:46.810Z,98853.81
2023-10-28T13:40:48.841Z,98863.09
2023-10-28T13:45:50.220Z,98867.16
2023-10-28T13:50:51.681Z,98870.28
2023-10-28T13:55:59.874Z,98855.03
2023-10-28T14:01:08.775Z,98851.25
2023-10-28T14:06:12.381Z,98839.88
2023-10-28T14:11:14.430Z,98837.41
2023-10-28T14:16:18.121Z,98843.41
2023-10-28T14:21:25.644Z,98848.47
2023-10-28T14:26:27.061Z,98853.28
2023-10-28T14:31:28.612Z,98856.91
2023-10-28T14:36:30.341Z,98851.03
2023-10-28T14:41:35.098Z,98849.97
2023-10-28T14:46:36.868Z,98856.66
2023-10-28T14:51:38.761Z,98860.31
2023-10-28T14:56:40.253Z,98867.47
2023-10-28T15:01:41.721Z,98874.78
2023-10-28T15:06:43.142Z,98867.63
2023-10-28T15:11:44.564Z,98868.78
2023-10-28T15:16:49.565Z,98856.09
2023-10-28T15:21:51.162Z,98841.53
2023-10-28T15:26:52.552Z,98846.56
2023-10-28T15:31:54.211Z,98849.38
2023-10-28T15:36:55.636Z,98840.69
2023-10-28T15:41:57.013Z,98852.69
2023-10-28T15:46:59.161Z,98858.00
2023-10-28T15:52:00.799Z,98859.16
2023-10-28T15:57:02.264Z,98862.81
2023-10-28T16:02:04.108Z,98857.19
2023-10-28T16:07:06.549Z,98873.84
2023-10-28T16:12:08.965Z,98871.50
2023-10-28T16:17:10.504Z,98863.75
2023-10-28T16:22:12.079Z,98880.66
2023-10-28T16:27:14.922Z,98891.00
2023-10-28T16:32:16.395Z,98877.13
2023-10-28T16:37:19.382Z,98875.97
2023-10-28T16:42:20.864Z,98874.94
2023-10-28T16:47:23.387Z,98879.13
2023-10-28T16:52:25.042Z,98889.63
2023-10-28T16:57:26.405Z,98879.13
2023-10-28T17:02:27.840Z,98878.31
2023-10-28T17:07:29.273Z,98883.84
2023-10-28T17:12:30.683Z,98889.59
2023-10-28T17:17:32.286Z,98895.00
2023-10-28T17:22:34.702Z,98893.22
2023-10-28T17:27:36.115Z,98886.31
2023-10-28T17:32:37.616Z,98902.38
2023-10-28T17:37:39.848Z,98917.09
2023-10-28T17:42:41.257Z,98913.66
2023-10-28T17:47:42.802Z,98912.50
2023-10-28T17:52:44.536Z,98903.81
2023-10-28T17:57:48.079Z,98899.47
2023-10-28T18:02:49.554Z,98897.72
2023-10-28T18:07:51.068Z,98904.16
2023-10-28T18:12:53.618Z,98906.16
2023-10-28T18:17:55.141Z,98911.56
2023-10-28T18:22:56.726Z,98919.66
2023-10-28T18:27:58.601Z,98918.63
2023-10-28T18:33:02.735Z,98921.47
2023-10-28T18:38:04.235Z,98923.66
2023-10-28T18:43:05.632Z,98910.50
2023-10-28T18:48:07.855Z,98915.09
2023-10-28T18:53:09.378Z,98908.03
2023-10-28T18:58:10.745Z,98912.41
2023-10-28T19:03:14.709Z,98905.47
2023-10-28T19:08:16.380Z,98899.94
2023-10-28T19:13:17.814Z,98905.69
2023-10-28T19:18:19.311Z,98902.19
2023-10-28T19:23:20.806Z,98903.22
2023-10-28T19:28:22.228Z,98895.47
2023-10-28T19:33:25.261Z,98901.94
2023-10-28T19:38:26.955Z,98901.47
2023-10-28T19:43:28.487Z,98907.47
2023-10-28T19:48:29.854Z,98896.19
2023-10-28T19:53:31.669Z,98904.88
2023-10-28T19:58:33.363Z,98904.66
2023-10-28T20:03:35.366Z,98900.53
2023-10-28T20:08:37.790Z,98891.38
2023-10-28T20:13:39.346Z,98882.91
2023-10-28T20:18:40.825Z,98877.63
2023-10-28T20:23:42.357Z,98882.56
2023-10-28T20:28:45.167Z,98870.78
2023-10-28T20:33:46.674Z,98867.75
2023-10-28T20:38:48.675Z,98863.41
2023-10-28T20:43:51.589Z,98862.25
2023-10-28T20:48:54.593Z,98856.03
2023-10-28T20:53:55.976Z,98860.13
2023-10-28T20:58:57.357Z,98859.75
2023-10-28T21:03:58.953Z,98858.00
2023-10-28T21:09:00.698Z,98864.13
2023-10-28T21:14:03.085Z,98868.22
2023-10-28T21:19:04.864Z,98876.09
2023-10-28T21:24:06.716Z,98882.78
2023-10-28T21:29:08.102Z,98882.19
2023-10-28T21:34:09.562Z,98883.94
2023-10-28T21:39:10.922Z,98885.94
2023-10-28T21:44:12.296Z,98884.16
2023-10-28T21:49:14.042Z,98889.78
2023-10-28T21:54:15.458Z,98902.22
2023-10-28T21:59:16.847Z,98890.22
2023-10-28T22:04:19.031Z,98891.44
2023-10-28T22:09:20.625Z,98889.31
2023-10-28T22:14:22.115Z,98881.22
2023-10-28T22:19:23.907Z,98890.72
2023-10-28T22:24:25.308Z,98872.88
2023-10-28T22:29:26.813Z,98877.69
2023-10-28T22:34:28.241Z,98859.84
2023-10-28T22:39:29.681Z,98850.31
2023-10-28T22:44:31.070Z,98849.28
2023-10-28T22:49:32.452Z,98842.47
2023-10-28T22:54:36.766Z,98834.97
2023-10-28T22:59:38.455Z,98834.97
2023-10-28T23:04:39.853Z,98820.03
2023-10-28T23:09:42.057Z,98815.59
2023-10-28T23:14:43.723Z,98799.88
2023-10-28T23:19:45.185Z,98792.72
2023-10-28T23:24:46.872Z,98804.09
2023-10-28T23:29:48.492Z,98796.47
2023-10-28T23:34:50.040Z,98788.22
2023-10-28T23:39:51.405Z,98780.50
2023-10-28T23:44:52.844Z,98769.00
2023-10-28T23:49:54.332Z,98774.03
2023-10-28T23:54:55.864Z,98770.63
2023-10-28T23:59:57.658Z,98767.69
